Porthleven, United Kingdom
Current Conditions -  °F | °C
As of 11:50 PM on Friday 24 Oct 2014 (Local Time) from EGDR Reporting Station
Broken Clouds Broken Clouds  
Wind Chill: 12°   Ceiling: 3500
Heat Index: 12°   Visibility: 6mi
Dew Point:   Wind: 7mph
Humidity: 77%   Direction: 280°W
Pressure: 30.03"   Gusts: NA
Location:  50.09°N, 5.32°W
Report Text: EGDR 242250Z 28006KT 9999 FEW018 BKN035 12/08 Q1017 BLU
Loading
Personal Weather Stations






























Interactive Weather Map
Tropical Storm Tracking
New forecast layout! Learn more

10-Day Weather Forecast

Advertisements
Track Severe Weather on mobile